This is the latest recevied weather packets stored in our database for station/object JE9BHE-13. If no packets are shown the sender has not sent any weather packets the latest 10 day(s).
| Time | Temp. | Humidity | Pressure | Rain* | Wind** | Luminosity | Snow |
|---|---|---|---|---|---|---|---|
| 1777668127 | 10° C | 95% | 1011.7 hPa | 0 mm | - | - | - |
| 1777667048 | 10° C | 96% | 1011.6 hPa | 0 mm | - | - | - |
| 1777665607 | 10° C | 95% | 1011.4 hPa | 0 mm | - | - | - |
| 1777665247 | 10° C | 95% | 1011.4 hPa | 0 mm | - | - | - |
| 1777664528 | 10° C | 93% | 1011.1 hPa | 0 mm | - | - | - |
| 1777664167 | 11.11° C | 92% | 1011.1 hPa | 0 mm | - | - | - |
| 1777663987 | 10.56° C | 93% | 1011.1 hPa | 0 mm | - | - | - |
| 1777663447 | 10.56° C | 93% | 1010.8 hPa | 0 mm | - | - | - |
| 1777662008 | 11.11° C | 92% | 1011 hPa | 0 mm | - | - | - |
| 1777661288 | 11.67° C | 91% | 1011.2 hPa | 0 mm | - | - | - |
| 1777661107 | 11.67° C | 91% | 1011 hPa | 0 mm | - | - | - |
| 1777659487 | 12.22° C | 89% | 1011.1 hPa | 0 mm | - | - | - |
| 1777658767 | 12.22° C | 87% | 1010.9 hPa | 0 mm | - | - | - |
| 1777658408 | 12.22° C | 88% | 1010.7 hPa | 0 mm | - | - | - |
| 1777656968 | 12.22° C | 88% | 1010.1 hPa | 0 mm | - | - | - |
| 1777656607 | 12.22° C | 91% | 1010.1 hPa | 0 mm | - | - | - |
| 1777656067 | 12.22° C | 92% | 1010.1 hPa | 0 mm | - | - | - |
| 1777651927 | 11.67° C | 98% | 1007.3 hPa | 4.32 mm | - | - | - |
| 1777650127 | 12.22° C | 97% | 1006.1 hPa | 3.56 mm | - | - | - |
| 1777647612 | 12.22° C | 97% | 1005 hPa | 4.32 mm | - | - | - |
| 1777645808 | 11.67° C | 93% | 1003.8 hPa | 1.78 mm | - | - | - |
| 1777644727 | 12.22° C | 89% | 1002.8 hPa | 1.02 mm | - | - | - |
| 1777644547 | 12.22° C | 88% | 1002.6 hPa | 0.51 mm | - | - | - |
| 1777644187 | 12.22° C | 87% | 1002.3 hPa | 0.25 mm | - | - | - |
| 1777643286 | 12.78° C | 84% | 1002.2 hPa | 0 mm | - | - | - |
* Rain latest hour (hover to see other rain measurements)
** Current wind speed in m/s (hover to see current wind gust speed)